sensor_id;sensor_type;location;lat;lon;timestamp;P1;durP1;ratioP1;P2;durP2;ratioP2
31786;SDS011;18356;52.380;9.820;2022-11-22T00:01:39;72.20;;;25.23;;
31786;SDS011;18356;52.380;9.820;2022-11-22T00:04:05;74.53;;;25.93;;
31786;SDS011;18356;52.380;9.820;2022-11-22T00:06:31;77.90;;;24.93;;
31786;SDS011;18356;52.380;9.820;2022-11-22T00:08:57;70.33;;;24.03;;
31786;SDS011;18356;52.380;9.820;2022-11-22T00:11:23;77.70;;;25.33;;
31786;SDS011;18356;52.380;9.820;2022-11-22T00:13:49;74.67;;;25.07;;
31786;SDS011;18356;52.380;9.820;2022-11-22T00:16:15;76.57;;;25.07;;
31786;SDS011;18356;52.380;9.820;2022-11-22T00:18:40;79.43;;;25.93;;
31786;SDS011;18356;52.380;9.820;2022-11-22T00:21:07;82.37;;;26.30;;
31786;SDS011;18356;52.380;9.820;2022-11-22T00:23:33;82.87;;;25.77;;
31786;SDS011;18356;52.380;9.820;2022-11-22T00:25:59;78.33;;;24.90;;
31786;SDS011;18356;52.380;9.820;2022-11-22T00:28:25;79.03;;;27.07;;
31786;SDS011;18356;52.380;9.820;2022-11-22T00:30:51;77.60;;;26.03;;
31786;SDS011;18356;52.380;9.820;2022-11-22T00:33:17;86.10;;;25.70;;
31786;SDS011;18356;52.380;9.820;2022-11-22T00:35:44;82.67;;;27.07;;
31786;SDS011;18356;52.380;9.820;2022-11-22T00:38:10;83.97;;;25.47;;
31786;SDS011;18356;52.380;9.820;2022-11-22T00:40:36;82.20;;;26.67;;
31786;SDS011;18356;52.380;9.820;2022-11-22T00:43:02;80.57;;;25.67;;
31786;SDS011;18356;52.380;9.820;2022-11-22T00:45:28;88.57;;;28.00;;
31786;SDS011;18356;52.380;9.820;2022-11-22T00:47:54;84.13;;;26.93;;
31786;SDS011;18356;52.380;9.820;2022-11-22T00:50:20;89.00;;;27.07;;
31786;SDS011;18356;52.380;9.820;2022-11-22T00:52:46;89.97;;;27.67;;
31786;SDS011;18356;52.380;9.820;2022-11-22T00:55:12;84.77;;;26.83;;
31786;SDS011;18356;52.380;9.820;2022-11-22T00:57:38;85.43;;;26.83;;
31786;SDS011;18356;52.380;9.820;2022-11-22T01:00:04;84.47;;;26.20;;
31786;SDS011;18356;52.380;9.820;2022-11-22T01:02:30;83.63;;;26.97;;
31786;SDS011;18356;52.380;9.820;2022-11-22T01:04:56;84.63;;;23.90;;
31786;SDS011;18356;52.380;9.820;2022-11-22T01:07:22;89.83;;;26.73;;
31786;SDS011;18356;52.380;9.820;2022-11-22T01:09:48;99.17;;;28.47;;
31786;SDS011;18356;52.380;9.820;2022-11-22T01:12:14;91.57;;;28.20;;
31786;SDS011;18356;52.380;9.820;2022-11-22T01:14:40;89.87;;;27.70;;
31786;SDS011;18356;52.380;9.820;2022-11-22T01:17:06;90.03;;;28.47;;
31786;SDS011;18356;52.380;9.820;2022-11-22T01:19:33;82.43;;;27.97;;
31786;SDS011;18356;52.380;9.820;2022-11-22T01:21:58;86.87;;;28.67;;
31786;SDS011;18356;52.380;9.820;2022-11-22T01:24:25;81.60;;;28.13;;
31786;SDS011;18356;52.380;9.820;2022-11-22T01:26:51;89.43;;;27.90;;
31786;SDS011;18356;52.380;9.820;2022-11-22T01:29:17;83.00;;;27.63;;
31786;SDS011;18356;52.380;9.820;2022-11-22T01:31:43;84.03;;;27.43;;
31786;SDS011;18356;52.380;9.820;2022-11-22T01:34:09;80.83;;;28.07;;
31786;SDS011;18356;52.380;9.820;2022-11-22T01:36:35;84.60;;;27.90;;
31786;SDS011;18356;52.380;9.820;2022-11-22T01:39:01;78.00;;;27.83;;
31786;SDS011;18356;52.380;9.820;2022-11-22T01:41:27;65.87;;;23.60;;
31786;SDS011;18356;52.380;9.820;2022-11-22T01:43:53;78.37;;;28.00;;
31786;SDS011;18356;52.380;9.820;2022-11-22T01:46:31;80.33;;;28.30;;
31786;SDS011;18356;52.380;9.820;2022-11-22T01:49:03;82.67;;;29.57;;
31786;SDS011;18356;52.380;9.820;2022-11-22T01:51:31;75.47;;;27.03;;
31786;SDS011;18356;52.380;9.820;2022-11-22T01:53:59;76.10;;;27.30;;
31786;SDS011;18356;52.380;9.820;2022-11-22T01:56:27;78.57;;;27.37;;
31786;SDS011;18356;52.380;9.820;2022-11-22T01:58:55;78.87;;;27.90;;
31786;SDS011;18356;52.380;9.820;2022-11-22T02:01:22;80.90;;;28.63;;
31786;SDS011;18356;52.380;9.820;2022-11-22T02:03:48;76.00;;;27.43;;
31786;SDS011;18356;52.380;9.820;2022-11-22T02:06:15;78.67;;;27.97;;
31786;SDS011;18356;52.380;9.820;2022-11-22T02:08:45;76.67;;;27.03;;
31786;SDS011;18356;52.380;9.820;2022-11-22T02:11:14;77.43;;;27.23;;
31786;SDS011;18356;52.380;9.820;2022-11-22T02:13:42;75.27;;;27.57;;
31786;SDS011;18356;52.380;9.820;2022-11-22T02:16:09;73.67;;;27.93;;
31786;SDS011;18356;52.380;9.820;2022-11-22T02:18:35;74.40;;;26.43;;
31786;SDS011;18356;52.380;9.820;2022-11-22T02:21:02;75.67;;;27.73;;
31786;SDS011;18356;52.380;9.820;2022-11-22T02:26:06;80.63;;;28.70;;
31786;SDS011;18356;52.380;9.820;2022-11-22T02:28:33;76.63;;;28.03;;
31786;SDS011;18356;52.380;9.820;2022-11-22T02:31:00;77.57;;;29.07;;
31786;SDS011;18356;52.380;9.820;2022-11-22T02:33:26;62.90;;;23.83;;
31786;SDS011;18356;52.380;9.820;2022-11-22T02:35:52;71.80;;;28.63;;
31786;SDS011;18356;52.380;9.820;2022-11-22T02:38:22;70.07;;;28.20;;
31786;SDS011;18356;52.380;9.820;2022-11-22T02:41:10;74.37;;;27.23;;
31786;SDS011;18356;52.380;9.820;2022-11-22T02:43:38;71.63;;;26.53;;
31786;SDS011;18356;52.380;9.820;2022-11-22T02:46:07;71.10;;;27.40;;
31786;SDS011;18356;52.380;9.820;2022-11-22T02:48:34;73.73;;;27.50;;
31786;SDS011;18356;52.380;9.820;2022-11-22T02:51:05;73.70;;;28.17;;
31786;SDS011;18356;52.380;9.820;2022-11-22T02:53:31;76.23;;;29.40;;
31786;SDS011;18356;52.380;9.820;2022-11-22T02:55:57;80.93;;;31.43;;
31786;SDS011;18356;52.380;9.820;2022-11-22T02:58:23;82.67;;;31.13;;
31786;SDS011;18356;52.380;9.820;2022-11-22T03:00:49;81.10;;;29.63;;
31786;SDS011;18356;52.380;9.820;2022-11-22T03:03:15;74.30;;;28.13;;
31786;SDS011;18356;52.380;9.820;2022-11-22T03:05:41;87.73;;;33.57;;
31786;SDS011;18356;52.380;9.820;2022-11-22T03:08:07;89.80;;;30.10;;
31786;SDS011;18356;52.380;9.820;2022-11-22T03:10:33;84.87;;;31.53;;
31786;SDS011;18356;52.380;9.820;2022-11-22T03:12:59;79.97;;;31.70;;
31786;SDS011;18356;52.380;9.820;2022-11-22T03:15:25;84.53;;;29.83;;
31786;SDS011;18356;52.380;9.820;2022-11-22T03:17:57;78.73;;;28.23;;
31786;SDS011;18356;52.380;9.820;2022-11-22T03:20:24;87.10;;;31.03;;
31786;SDS011;18356;52.380;9.820;2022-11-22T03:22:50;87.67;;;29.57;;
31786;SDS011;18356;52.380;9.820;2022-11-22T03:25:16;85.37;;;30.13;;
31786;SDS011;18356;52.380;9.820;2022-11-22T03:27:42;77.33;;;30.23;;
31786;SDS011;18356;52.380;9.820;2022-11-22T03:30:08;88.83;;;30.03;;
31786;SDS011;18356;52.380;9.820;2022-11-22T03:32:34;84.50;;;29.43;;
31786;SDS011;18356;52.380;9.820;2022-11-22T03:35:00;79.30;;;29.17;;
31786;SDS011;18356;52.380;9.820;2022-11-22T03:37:26;82.77;;;30.20;;
31786;SDS011;18356;52.380;9.820;2022-11-22T03:39:52;72.00;;;27.80;;
31786;SDS011;18356;52.380;9.820;2022-11-22T03:42:18;78.47;;;28.83;;
31786;SDS011;18356;52.380;9.820;2022-11-22T03:44:44;85.47;;;30.93;;
31786;SDS011;18356;52.380;9.820;2022-11-22T03:47:10;81.43;;;30.17;;
31786;SDS011;18356;52.380;9.820;2022-11-22T03:49:36;77.17;;;29.17;;
31786;SDS011;18356;52.380;9.820;2022-11-22T03:52:02;80.37;;;29.07;;
31786;SDS011;18356;52.380;9.820;2022-11-22T03:54:28;83.40;;;30.10;;
31786;SDS011;18356;52.380;9.820;2022-11-22T03:56:53;80.97;;;29.13;;
31786;SDS011;18356;52.380;9.820;2022-11-22T03:59:19;81.97;;;29.50;;
31786;SDS011;18356;52.380;9.820;2022-11-22T04:01:45;79.83;;;29.27;;
31786;SDS011;18356;52.380;9.820;2022-11-22T04:04:11;95.93;;;31.30;;
31786;SDS011;18356;52.380;9.820;2022-11-22T04:06:37;89.03;;;29.57;;
31786;SDS011;18356;52.380;9.820;2022-11-22T04:09:04;77.57;;;28.63;;
31786;SDS011;18356;52.380;9.820;2022-11-22T04:11:30;83.40;;;28.17;;
31786;SDS011;18356;52.380;9.820;2022-11-22T04:13:56;83.73;;;30.50;;
31786;SDS011;18356;52.380;9.820;2022-11-22T04:16:40;83.20;;;30.00;;
31786;SDS011;18356;52.380;9.820;2022-11-22T04:19:06;87.37;;;29.50;;
31786;SDS011;18356;52.380;9.820;2022-11-22T04:21:32;85.00;;;29.60;;
31786;SDS011;18356;52.380;9.820;2022-11-22T04:23:59;76.27;;;29.07;;
31786;SDS011;18356;52.380;9.820;2022-11-22T04:26:44;83.40;;;30.27;;
31786;SDS011;18356;52.380;9.820;2022-11-22T04:29:10;85.07;;;29.80;;
31786;SDS011;18356;52.380;9.820;2022-11-22T04:31:36;88.73;;;30.90;;
31786;SDS011;18356;52.380;9.820;2022-11-22T04:34:21;87.43;;;30.57;;
31786;SDS011;18356;52.380;9.820;2022-11-22T04:36:47;84.40;;;30.30;;
31786;SDS011;18356;52.380;9.820;2022-11-22T04:39:13;76.13;;;28.57;;
31786;SDS011;18356;52.380;9.820;2022-11-22T04:41:39;85.00;;;31.07;;
31786;SDS011;18356;52.380;9.820;2022-11-22T04:44:05;80.63;;;29.87;;
31786;SDS011;18356;52.380;9.820;2022-11-22T04:46:50;78.20;;;29.53;;
31786;SDS011;18356;52.380;9.820;2022-11-22T04:49:16;102.10;;;32.70;;
31786;SDS011;18356;52.380;9.820;2022-11-22T04:51:42;87.07;;;30.17;;
31786;SDS011;18356;52.380;9.820;2022-11-22T04:54:26;89.83;;;29.27;;
31786;SDS011;18356;52.380;9.820;2022-11-22T04:56:52;80.47;;;29.23;;
31786;SDS011;18356;52.380;9.820;2022-11-22T04:59:18;81.83;;;30.60;;
31786;SDS011;18356;52.380;9.820;2022-11-22T05:01:44;89.80;;;30.93;;
31786;SDS011;18356;52.380;9.820;2022-11-22T05:04:10;77.63;;;28.83;;
31786;SDS011;18356;52.380;9.820;2022-11-22T05:06:36;77.70;;;28.90;;
31786;SDS011;18356;52.380;9.820;2022-11-22T05:09:02;83.67;;;29.37;;
31786;SDS011;18356;52.380;9.820;2022-11-22T05:11:28;83.97;;;29.20;;
31786;SDS011;18356;52.380;9.820;2022-11-22T05:13:54;82.27;;;28.43;;
31786;SDS011;18356;52.380;9.820;2022-11-22T05:16:20;91.63;;;29.80;;
31786;SDS011;18356;52.380;9.820;2022-11-22T05:18:46;82.30;;;29.27;;
31786;SDS011;18356;52.380;9.820;2022-11-22T05:21:23;86.13;;;29.90;;
31786;SDS011;18356;52.380;9.820;2022-11-22T05:23:49;82.03;;;28.43;;
31786;SDS011;18356;52.380;9.820;2022-11-22T05:26:18;79.77;;;29.53;;
31786;SDS011;18356;52.380;9.820;2022-11-22T05:28:44;80.97;;;27.87;;
31786;SDS011;18356;52.380;9.820;2022-11-22T05:31:11;80.77;;;29.23;;
31786;SDS011;18356;52.380;9.820;2022-11-22T05:33:38;90.37;;;30.43;;
31786;SDS011;18356;52.380;9.820;2022-11-22T05:36:05;86.57;;;29.77;;
31786;SDS011;18356;52.380;9.820;2022-11-22T05:38:33;81.37;;;27.97;;
31786;SDS011;18356;52.380;9.820;2022-11-22T05:41:02;75.90;;;26.80;;
31786;SDS011;18356;52.380;9.820;2022-11-22T05:43:29;82.43;;;29.90;;
31786;SDS011;18356;52.380;9.820;2022-11-22T05:45:55;75.77;;;28.03;;
31786;SDS011;18356;52.380;9.820;2022-11-22T05:48:21;72.60;;;26.80;;
31786;SDS011;18356;52.380;9.820;2022-11-22T05:50:47;69.73;;;27.13;;
31786;SDS011;18356;52.380;9.820;2022-11-22T05:53:13;74.70;;;27.87;;
31786;SDS011;18356;52.380;9.820;2022-11-22T05:55:39;77.00;;;27.27;;
31786;SDS011;18356;52.380;9.820;2022-11-22T05:58:05;77.60;;;26.70;;
31786;SDS011;18356;52.380;9.820;2022-11-22T06:00:31;68.60;;;26.93;;
31786;SDS011;18356;52.380;9.820;2022-11-22T06:03:00;77.37;;;27.30;;
31786;SDS011;18356;52.380;9.820;2022-11-22T06:05:26;68.93;;;27.13;;
31786;SDS011;18356;52.380;9.820;2022-11-22T06:07:52;66.50;;;27.80;;
31786;SDS011;18356;52.380;9.820;2022-11-22T06:10:18;66.63;;;27.27;;
31786;SDS011;18356;52.380;9.820;2022-11-22T06:12:44;71.47;;;26.27;;
31786;SDS011;18356;52.380;9.820;2022-11-22T06:15:10;70.73;;;27.10;;
31786;SDS011;18356;52.380;9.820;2022-11-22T06:17:36;65.97;;;26.57;;
31786;SDS011;18356;52.380;9.820;2022-11-22T06:20:02;81.57;;;28.27;;
31786;SDS011;18356;52.380;9.820;2022-11-22T06:22:28;63.70;;;25.63;;
31786;SDS011;18356;52.380;9.820;2022-11-22T06:24:55;65.77;;;26.10;;
31786;SDS011;18356;52.380;9.820;2022-11-22T06:27:21;60.63;;;25.53;;
31786;SDS011;18356;52.380;9.820;2022-11-22T06:29:47;65.57;;;26.17;;
31786;SDS011;18356;52.380;9.820;2022-11-22T06:32:13;62.50;;;26.13;;
31786;SDS011;18356;52.380;9.820;2022-11-22T06:34:39;58.43;;;23.73;;
31786;SDS011;18356;52.380;9.820;2022-11-22T06:37:05;64.03;;;26.10;;
31786;SDS011;18356;52.380;9.820;2022-11-22T06:39:31;66.23;;;24.30;;
31786;SDS011;18356;52.380;9.820;2022-11-22T06:41:57;67.57;;;26.33;;
31786;SDS011;18356;52.380;9.820;2022-11-22T06:44:23;61.27;;;25.47;;
31786;SDS011;18356;52.380;9.820;2022-11-22T06:46:49;63.90;;;24.83;;
31786;SDS011;18356;52.380;9.820;2022-11-22T06:49:15;64.03;;;25.40;;
31786;SDS011;18356;52.380;9.820;2022-11-22T06:51:41;68.00;;;26.27;;
31786;SDS011;18356;52.380;9.820;2022-11-22T06:54:10;60.23;;;24.47;;
31786;SDS011;18356;52.380;9.820;2022-11-22T06:56:36;59.03;;;24.80;;
31786;SDS011;18356;52.380;9.820;2022-11-22T06:59:04;59.40;;;24.97;;
31786;SDS011;18356;52.380;9.820;2022-11-22T07:01:30;58.67;;;24.70;;
31786;SDS011;18356;52.380;9.820;2022-11-22T07:03:56;63.00;;;25.23;;
31786;SDS011;18356;52.380;9.820;2022-11-22T07:06:27;58.23;;;24.57;;
31786;SDS011;18356;52.380;9.820;2022-11-22T07:08:53;61.63;;;25.93;;
31786;SDS011;18356;52.380;9.820;2022-11-22T07:11:24;61.33;;;24.43;;
31786;SDS011;18356;52.380;9.820;2022-11-22T07:13:50;55.60;;;23.50;;
31786;SDS011;18356;52.380;9.820;2022-11-22T07:16:17;58.63;;;26.53;;
31786;SDS011;18356;52.380;9.820;2022-11-22T07:18:44;56.53;;;24.03;;
31786;SDS011;18356;52.380;9.820;2022-11-22T07:21:20;62.07;;;24.43;;
31786;SDS011;18356;52.380;9.820;2022-11-22T07:23:47;56.00;;;23.87;;
31786;SDS011;18356;52.380;9.820;2022-11-22T07:26:13;55.77;;;23.57;;
31786;SDS011;18356;52.380;9.820;2022-11-22T07:28:40;57.47;;;24.00;;
31786;SDS011;18356;52.380;9.820;2022-11-22T07:31:06;49.23;;;22.43;;
31786;SDS011;18356;52.380;9.820;2022-11-22T07:33:33;51.73;;;23.17;;
31786;SDS011;18356;52.380;9.820;2022-11-22T07:36:03;51.33;;;23.53;;
31786;SDS011;18356;52.380;9.820;2022-11-22T07:38:29;51.50;;;23.17;;
31786;SDS011;18356;52.380;9.820;2022-11-22T07:40:55;55.73;;;23.90;;
31786;SDS011;18356;52.380;9.820;2022-11-22T07:43:21;56.63;;;23.93;;
31786;SDS011;18356;52.380;9.820;2022-11-22T07:45:47;52.83;;;22.77;;
31786;SDS011;18356;52.380;9.820;2022-11-22T07:48:13;52.93;;;21.37;;
31786;SDS011;18356;52.380;9.820;2022-11-22T07:50:40;51.60;;;22.57;;
31786;SDS011;18356;52.380;9.820;2022-11-22T07:53:06;44.93;;;21.10;;
31786;SDS011;18356;52.380;9.820;2022-11-22T07:55:32;44.23;;;21.03;;
31786;SDS011;18356;52.380;9.820;2022-11-22T07:57:58;50.47;;;21.93;;
31786;SDS011;18356;52.380;9.820;2022-11-22T08:00:25;48.77;;;21.80;;
31786;SDS011;18356;52.380;9.820;2022-11-22T08:02:51;51.50;;;21.60;;
31786;SDS011;18356;52.380;9.820;2022-11-22T08:05:17;52.37;;;23.00;;
31786;SDS011;18356;52.380;9.820;2022-11-22T08:07:50;52.47;;;21.70;;
31786;SDS011;18356;52.380;9.820;2022-11-22T08:10:16;48.90;;;21.77;;
31786;SDS011;18356;52.380;9.820;2022-11-22T08:12:42;44.03;;;21.13;;
31786;SDS011;18356;52.380;9.820;2022-11-22T08:15:09;46.37;;;21.13;;
31786;SDS011;18356;52.380;9.820;2022-11-22T08:17:35;45.57;;;21.23;;
31786;SDS011;18356;52.380;9.820;2022-11-22T08:20:02;45.00;;;20.87;;
31786;SDS011;18356;52.380;9.820;2022-11-22T08:22:28;45.13;;;21.13;;
31786;SDS011;18356;52.380;9.820;2022-11-22T08:24:54;36.57;;;18.77;;
31786;SDS011;18356;52.380;9.820;2022-11-22T08:27:20;36.80;;;18.07;;
31786;SDS011;18356;52.380;9.820;2022-11-22T08:29:46;38.80;;;18.43;;
31786;SDS011;18356;52.380;9.820;2022-11-22T08:32:12;36.10;;;19.10;;
31786;SDS011;18356;52.380;9.820;2022-11-22T08:34:38;42.03;;;18.60;;
31786;SDS011;18356;52.380;9.820;2022-11-22T08:37:04;40.53;;;18.60;;
31786;SDS011;18356;52.380;9.820;2022-11-22T08:39:30;35.40;;;17.93;;
31786;SDS011;18356;52.380;9.820;2022-11-22T08:41:56;39.87;;;17.77;;
31786;SDS011;18356;52.380;9.820;2022-11-22T08:44:22;39.10;;;17.80;;
31786;SDS011;18356;52.380;9.820;2022-11-22T08:46:48;45.83;;;18.77;;
31786;SDS011;18356;52.380;9.820;2022-11-22T08:49:14;39.00;;;17.80;;
31786;SDS011;18356;52.380;9.820;2022-11-22T08:51:40;44.97;;;17.67;;
31786;SDS011;18356;52.380;9.820;2022-11-22T08:54:10;34.60;;;18.03;;
31786;SDS011;18356;52.380;9.820;2022-11-22T08:56:36;39.33;;;17.20;;
31786;SDS011;18356;52.380;9.820;2022-11-22T08:59:02;36.63;;;16.83;;
31786;SDS011;18356;52.380;9.820;2022-11-22T09:01:28;35.77;;;16.60;;
31786;SDS011;18356;52.380;9.820;2022-11-22T09:03:54;32.53;;;16.00;;
31786;SDS011;18356;52.380;9.820;2022-11-22T09:06:20;35.00;;;16.70;;
31786;SDS011;18356;52.380;9.820;2022-11-22T09:08:46;36.13;;;16.07;;
31786;SDS011;18356;52.380;9.820;2022-11-22T09:11:13;35.73;;;15.50;;
31786;SDS011;18356;52.380;9.820;2022-11-22T09:13:40;30.93;;;15.77;;
31786;SDS011;18356;52.380;9.820;2022-11-22T09:16:07;33.67;;;16.90;;
31786;SDS011;18356;52.380;9.820;2022-11-22T09:18:33;33.97;;;17.17;;
31786;SDS011;18356;52.380;9.820;2022-11-22T09:21:00;30.17;;;15.63;;
31786;SDS011;18356;52.380;9.820;2022-11-22T09:23:26;27.73;;;15.07;;
31786;SDS011;18356;52.380;9.820;2022-11-22T09:25:59;28.03;;;15.27;;
31786;SDS011;18356;52.380;9.820;2022-11-22T09:28:26;30.07;;;15.83;;
31786;SDS011;18356;52.380;9.820;2022-11-22T09:31:02;35.77;;;16.53;;
31786;SDS011;18356;52.380;9.820;2022-11-22T09:33:28;33.63;;;16.83;;
31786;SDS011;18356;52.380;9.820;2022-11-22T09:36:01;37.53;;;18.47;;
31786;SDS011;18356;52.380;9.820;2022-11-22T09:38:27;38.67;;;17.80;;
31786;SDS011;18356;52.380;9.820;2022-11-22T09:40:54;32.93;;;17.10;;
31786;SDS011;18356;52.380;9.820;2022-11-22T09:46:38;30.53;;;16.87;;
31786;SDS011;18356;52.380;9.820;2022-11-22T09:49:04;28.37;;;15.13;;
31786;SDS011;18356;52.380;9.820;2022-11-22T09:51:43;27.20;;;16.57;;
31786;SDS011;18356;52.380;9.820;2022-11-22T09:54:12;25.57;;;14.90;;
31786;SDS011;18356;52.380;9.820;2022-11-22T09:56:40;27.13;;;14.83;;
31786;SDS011;18356;52.380;9.820;2022-11-22T10:06:34;26.40;;;14.60;;
31786;SDS011;18356;52.380;9.820;2022-11-22T10:14:24;27.10;;;15.13;;
31786;SDS011;18356;52.380;9.820;2022-11-22T10:16:54;29.03;;;16.53;;
31786;SDS011;18356;52.380;9.820;2022-11-22T10:21:53;23.70;;;14.33;;
31786;SDS011;18356;52.380;9.820;2022-11-22T10:24:19;23.77;;;14.63;;
31786;SDS011;18356;52.380;9.820;2022-11-22T10:26:45;25.90;;;14.67;;
31786;SDS011;18356;52.380;9.820;2022-11-22T10:29:15;26.63;;;14.57;;
31786;SDS011;18356;52.380;9.820;2022-11-22T10:34:14;24.37;;;14.33;;
31786;SDS011;18356;52.380;9.820;2022-11-22T10:39:22;24.87;;;14.60;;
31786;SDS011;18356;52.380;9.820;2022-11-22T10:44:29;24.33;;;14.07;;
31786;SDS011;18356;52.380;9.820;2022-11-22T10:47:08;25.03;;;14.37;;
31786;SDS011;18356;52.380;9.820;2022-11-22T10:52:13;26.47;;;14.90;;
31786;SDS011;18356;52.380;9.820;2022-11-22T11:04:58;23.03;;;12.17;;
31786;SDS011;18356;52.380;9.820;2022-11-22T11:07:25;22.70;;;13.20;;
31786;SDS011;18356;52.380;9.820;2022-11-22T11:09:56;20.03;;;12.23;;
31786;SDS011;18356;52.380;9.820;2022-11-22T11:12:28;20.47;;;12.40;;
31786;SDS011;18356;52.380;9.820;2022-11-22T11:15:02;22.50;;;12.57;;
31786;SDS011;18356;52.380;9.820;2022-11-22T11:17:31;21.03;;;11.87;;
31786;SDS011;18356;52.380;9.820;2022-11-22T11:19:58;21.97;;;12.33;;
31786;SDS011;18356;52.380;9.820;2022-11-22T11:22:27;19.90;;;11.60;;
31786;SDS011;18356;52.380;9.820;2022-11-22T11:24:55;16.90;;;10.97;;
31786;SDS011;18356;52.380;9.820;2022-11-22T11:27:21;22.13;;;11.90;;
31786;SDS011;18356;52.380;9.820;2022-11-22T11:30:02;24.60;;;11.73;;
31786;SDS011;18356;52.380;9.820;2022-11-22T11:32:28;20.37;;;11.63;;
31786;SDS011;18356;52.380;9.820;2022-11-22T11:34:56;19.30;;;12.10;;
31786;SDS011;18356;52.380;9.820;2022-11-22T11:37:24;23.90;;;13.57;;
31786;SDS011;18356;52.380;9.820;2022-11-22T11:39:50;22.77;;;13.47;;
31786;SDS011;18356;52.380;9.820;2022-11-22T11:42:23;25.27;;;13.83;;
31786;SDS011;18356;52.380;9.820;2022-11-22T11:44:49;26.37;;;13.10;;
31786;SDS011;18356;52.380;9.820;2022-11-22T11:47:31;24.27;;;12.83;;
31786;SDS011;18356;52.380;9.820;2022-11-22T11:49:57;23.57;;;13.23;;
31786;SDS011;18356;52.380;9.820;2022-11-22T11:52:23;22.83;;;13.43;;
31786;SDS011;18356;52.380;9.820;2022-11-22T11:54:57;27.77;;;13.57;;
31786;SDS011;18356;52.380;9.820;2022-11-22T11:59:51;18.07;;;11.40;;
31786;SDS011;18356;52.380;9.820;2022-11-22T12:10:53;23.40;;;10.23;;
31786;SDS011;18356;52.380;9.820;2022-11-22T12:13:00;14.07;;;8.83;;
31786;SDS011;18356;52.380;9.820;2022-11-22T12:15:28;16.90;;;9.20;;
31786;SDS011;18356;52.380;9.820;2022-11-22T12:18:13;15.30;;;8.63;;
31786;SDS011;18356;52.380;9.820;2022-11-22T12:25:44;16.00;;;8.07;;
31786;SDS011;18356;52.380;9.820;2022-11-22T12:30:38;14.53;;;7.53;;
31786;SDS011;18356;52.380;9.820;2022-11-22T12:33:05;15.10;;;7.40;;
31786;SDS011;18356;52.380;9.820;2022-11-22T12:35:35;17.00;;;7.50;;
31786;SDS011;18356;52.380;9.820;2022-11-22T12:40:43;15.63;;;7.80;;
31786;SDS011;18356;52.380;9.820;2022-11-22T12:45:47;17.37;;;8.47;;
31786;SDS011;18356;52.380;9.820;2022-11-22T12:48:26;16.73;;;9.30;;
31786;SDS011;18356;52.380;9.820;2022-11-22T12:50:54;18.23;;;10.07;;
31786;SDS011;18356;52.380;9.820;2022-11-22T12:53:26;21.53;;;10.77;;
31786;SDS011;18356;52.380;9.820;2022-11-22T12:58:36;20.17;;;10.23;;
31786;SDS011;18356;52.380;9.820;2022-11-22T13:03:38;20.50;;;11.20;;
31786;SDS011;18356;52.380;9.820;2022-11-22T13:06:06;22.87;;;12.23;;
31786;SDS011;18356;52.380;9.820;2022-11-22T13:08:41;24.03;;;12.60;;
31786;SDS011;18356;52.380;9.820;2022-11-22T13:11:15;22.80;;;11.60;;
31786;SDS011;18356;52.380;9.820;2022-11-22T13:13:44;22.20;;;14.30;;
31786;SDS011;18356;52.380;9.820;2022-11-22T13:16:11;24.73;;;14.87;;
31786;SDS011;18356;52.380;9.820;2022-11-22T13:18:42;24.97;;;15.00;;
31786;SDS011;18356;52.380;9.820;2022-11-22T13:26:35;25.13;;;15.53;;
31786;SDS011;18356;52.380;9.820;2022-11-22T13:29:07;24.80;;;14.23;;
31786;SDS011;18356;52.380;9.820;2022-11-22T13:31:34;25.00;;;14.27;;
31786;SDS011;18356;52.380;9.820;2022-11-22T13:34:00;26.67;;;15.10;;
31786;SDS011;18356;52.380;9.820;2022-11-22T13:38:57;27.40;;;15.47;;
31786;SDS011;18356;52.380;9.820;2022-11-22T13:49:14;21.83;;;10.80;;
31786;SDS011;18356;52.380;9.820;2022-11-22T13:51:48;16.50;;;9.00;;
31786;SDS011;18356;52.380;9.820;2022-11-22T13:57:00;16.20;;;7.23;;
31786;SDS011;18356;52.380;9.820;2022-11-22T13:59:27;17.70;;;7.10;;
31786;SDS011;18356;52.380;9.820;2022-11-22T14:01:53;18.30;;;8.00;;
31786;SDS011;18356;52.380;9.820;2022-11-22T14:09:16;19.30;;;8.17;;
31786;SDS011;18356;52.380;9.820;2022-11-22T14:12:15;15.03;;;7.83;;
31786;SDS011;18356;52.380;9.820;2022-11-22T14:17:19;18.30;;;7.93;;
31786;SDS011;18356;52.380;9.820;2022-11-22T14:22:23;13.47;;;7.27;;
31786;SDS011;18356;52.380;9.820;2022-11-22T14:27:35;17.50;;;6.33;;
31786;SDS011;18356;52.380;9.820;2022-11-22T14:30:07;15.07;;;5.33;;
31786;SDS011;18356;52.380;9.820;2022-11-22T14:35:22;12.90;;;4.30;;
31786;SDS011;18356;52.380;9.820;2022-11-22T14:37:59;15.60;;;4.70;;
31786;SDS011;18356;52.380;9.820;2022-11-22T14:40:30;11.97;;;4.53;;
31786;SDS011;18356;52.380;9.820;2022-11-22T14:43:42;15.17;;;4.70;;
31786;SDS011;18356;52.380;9.820;2022-11-22T14:45:50;14.37;;;5.80;;
31786;SDS011;18356;52.380;9.820;2022-11-22T14:48:20;16.40;;;5.13;;
31786;SDS011;18356;52.380;9.820;2022-11-22T14:50:49;18.00;;;5.23;;
31786;SDS011;18356;52.380;9.820;2022-11-22T14:53:31;19.10;;;4.70;;
31786;SDS011;18356;52.380;9.820;2022-11-22T15:04:02;17.30;;;8.10;;
31786;SDS011;18356;52.380;9.820;2022-11-22T15:06:38;24.67;;;10.43;;
31786;SDS011;18356;52.380;9.820;2022-11-22T15:11:46;24.70;;;11.80;;
31786;SDS011;18356;52.380;9.820;2022-11-22T15:16:53;26.73;;;10.80;;
31786;SDS011;18356;52.380;9.820;2022-11-22T15:19:37;24.10;;;11.37;;
31786;SDS011;18356;52.380;9.820;2022-11-22T15:22:10;20.23;;;11.00;;
31786;SDS011;18356;52.380;9.820;2022-11-22T15:24:37;20.50;;;10.20;;
31786;SDS011;18356;52.380;9.820;2022-11-22T15:27:21;21.50;;;10.63;;
31786;SDS011;18356;52.380;9.820;2022-11-22T15:30:05;23.43;;;10.93;;
31786;SDS011;18356;52.380;9.820;2022-11-22T15:32:31;23.00;;;11.03;;
31786;SDS011;18356;52.380;9.820;2022-11-22T15:34:57;21.07;;;10.80;;
31786;SDS011;18356;52.380;9.820;2022-11-22T15:40:22;24.10;;;10.33;;
31786;SDS011;18356;52.380;9.820;2022-11-22T15:43:31;22.43;;;10.20;;
31786;SDS011;18356;52.380;9.820;2022-11-22T15:45:42;22.07;;;10.60;;
31786;SDS011;18356;52.380;9.820;2022-11-22T15:48:15;22.73;;;10.63;;
31786;SDS011;18356;52.380;9.820;2022-11-22T15:50:59;27.13;;;11.43;;
31786;SDS011;18356;52.380;9.820;2022-11-22T15:53:26;24.80;;;12.07;;
31786;SDS011;18356;52.380;9.820;2022-11-22T15:56:11;25.47;;;11.57;;
31786;SDS011;18356;52.380;9.820;2022-11-22T15:58:40;25.63;;;11.70;;
31786;SDS011;18356;52.380;9.820;2022-11-22T16:01:11;31.27;;;12.63;;
31786;SDS011;18356;52.380;9.820;2022-11-22T16:03:39;26.10;;;12.57;;
31786;SDS011;18356;52.380;9.820;2022-11-22T16:06:09;27.43;;;12.90;;
31786;SDS011;18356;52.380;9.820;2022-11-22T16:08:38;27.90;;;12.97;;
31786;SDS011;18356;52.380;9.820;2022-11-22T16:11:04;27.90;;;13.10;;
31786;SDS011;18356;52.380;9.820;2022-11-22T16:13:34;25.63;;;12.53;;
31786;SDS011;18356;52.380;9.820;2022-11-22T16:18:29;27.23;;;13.00;;
31786;SDS011;18356;52.380;9.820;2022-11-22T16:23:40;31.17;;;12.63;;
31786;SDS011;18356;52.380;9.820;2022-11-22T16:28:38;31.00;;;12.97;;
31786;SDS011;18356;52.380;9.820;2022-11-22T16:31:21;33.63;;;13.13;;
31786;SDS011;18356;52.380;9.820;2022-11-22T16:33:47;27.27;;;12.67;;
31786;SDS011;18356;52.380;9.820;2022-11-22T16:36:14;30.60;;;13.80;;
31786;SDS011;18356;52.380;9.820;2022-11-22T16:38:41;25.93;;;13.17;;